Time;durP1;ratioP1;P1;durP2;ratioP2;P2;SDS_P1;SDS_P2;PMS_P1;PMS_P2;Temp;Humidity;BMP_temperature;BMP_pressure;BME280_temperature;BME280_humidity;BME280_pressure;Samples;Min_cycle;Max_cycle;Signal;HPM_P1;HPM_P2
2022/02/17 00:02:00;;;;;;;;;;;9.60;99.90;;;;;;4957341;28;20369;-89
2022/02/17 00:04:25;;;;;;;;;;;9.60;99.90;;;;;;4973451;28;20050;-88
2022/02/17 00:06:51;;;;;;;;;;;9.70;99.90;;;;;;4939979;28;20365;-88
2022/02/17 00:09:17;;;;;;;;;;;9.70;99.90;;;;;;4972338;28;19915;-89
2022/02/17 00:11:43;;;;;;;;;;;9.70;99.90;;;;;;4940478;28;19924;-87
2022/02/17 00:14:09;;;;;;;;;;;9.70;99.90;;;;;;4968618;28;20017;-89
2022/02/17 00:16:34;;;;;;;;;;;9.80;99.90;;;;;;4956274;28;19925;-89
2022/02/17 00:19:02;;;;;;;;;;;9.80;99.90;;;;;;4955816;28;19934;-90
2022/02/17 00:21:28;;;;;;;;;;;9.80;99.90;;;;;;4954439;28;19932;-87
2022/02/17 00:23:54;;;;;;;;;;;9.80;99.90;;;;;;4950816;28;19937;-89
2022/02/17 00:26:23;;;;;;;;;;;9.80;99.90;;;;;;4956496;28;19914;-89
2022/02/17 00:28:49;;;;;;;;;;;9.80;99.90;;;;;;4972154;28;20292;-88
2022/02/17 00:31:15;;;;;;;;;;;9.90;99.90;;;;;;4978246;28;19918;-90
2022/02/17 00:33:40;;;;;;;;;;;9.90;99.90;;;;;;4972570;28;19919;-88
2022/02/17 00:36:08;;;;;;;;;;;9.90;99.90;;;;;;4977709;28;19952;-89
2022/02/17 00:38:35;;;;;;;;;;;9.90;99.90;;;;;;4963958;28;19926;-88
2022/02/17 00:41:02;;;;;;;;;;;10.00;99.90;;;;;;4937426;28;19918;-88
2022/02/17 00:43:28;;;;;;;;;;;10.00;99.90;;;;;;4964528;28;20345;-89
2022/02/17 00:45:54;;;;;;;;;;;10.00;99.90;;;;;;4939789;28;20292;-89
2022/02/17 00:48:22;;;;;;;;;;;10.00;99.90;;;;;;4971836;28;19915;-89
2022/02/17 00:50:47;;;;;;;;;;;10.00;99.90;;;;;;4967609;28;19969;-89
2022/02/17 00:53:13;;;;;;;;;;;10.00;99.90;;;;;;4958780;28;19915;-88
2022/02/17 00:55:38;;;;;;;;;;;10.00;99.90;;;;;;4955283;28;20368;-89
2022/02/17 00:58:05;;;;;;;;;;;10.10;99.90;;;;;;4972647;28;20328;-89
2022/02/17 01:00:31;;;;;;;;;;;10.10;99.90;;;;;;4955531;28;19970;-90
2022/02/17 01:03:05;;;;;;;;;;;10.10;99.90;;;;;;4953250;28;19922;-88
2022/02/17 01:05:32;;;;;;;;;;;10.10;99.90;;;;;;4941961;28;19915;-89
2022/02/17 01:07:58;;;;;;;;;;;10.10;99.90;;;;;;4953007;28;19921;-88
2022/02/17 01:10:25;;;;;;;;;;;10.10;99.90;;;;;;4939733;28;19924;-89
2022/02/17 01:12:50;;;;;;;;;;;10.10;99.90;;;;;;4963286;28;20005;-88
2022/02/17 01:15:20;;;;;;;;;;;10.20;99.90;;;;;;4936628;28;19919;-89
2022/02/17 01:17:46;;;;;;;;;;;10.10;99.90;;;;;;4951846;28;20361;-88
2022/02/17 01:20:13;;;;;;;;;;;10.10;99.90;;;;;;4971601;28;19942;-89
2022/02/17 01:22:41;;;;;;;;;;;10.10;99.90;;;;;;4971581;28;19914;-88
2022/02/17 01:25:06;;;;;;;;;;;10.10;99.90;;;;;;4955980;28;20380;-88
2022/02/17 01:27:34;;;;;;;;;;;10.10;99.90;;;;;;4976460;28;19997;-88
2022/02/17 01:30:00;;;;;;;;;;;10.10;99.90;;;;;;4959007;28;20017;-88
2022/02/17 01:32:28;;;;;;;;;;;10.10;99.90;;;;;;4942605;28;19918;-88
2022/02/17 01:34:54;;;;;;;;;;;10.20;99.90;;;;;;4961080;28;19915;-88
2022/02/17 01:37:19;;;;;;;;;;;10.20;99.90;;;;;;4974019;28;19973;-87
2022/02/17 01:39:51;;;;;;;;;;;10.20;99.90;;;;;;4944371;28;20381;-88
2022/02/17 01:42:17;;;;;;;;;;;10.10;99.90;;;;;;4974848;28;19961;-88
2022/02/17 01:44:44;;;;;;;;;;;10.10;99.90;;;;;;4943126;28;19926;-89
2022/02/17 01:47:12;;;;;;;;;;;10.10;99.90;;;;;;4943278;28;20348;-88
2022/02/17 01:49:39;;;;;;;;;;;10.10;99.90;;;;;;4960232;28;19914;-88
2022/02/17 01:52:06;;;;;;;;;;;10.10;99.90;;;;;;4962529;28;19921;-89
2022/02/17 01:54:32;;;;;;;;;;;10.10;99.90;;;;;;4959309;28;19921;-89
2022/02/17 01:56:59;;;;;;;;;;;10.10;99.90;;;;;;4956308;28;19915;-90
2022/02/17 01:59:25;;;;;;;;;;;10.10;99.90;;;;;;4973712;28;20048;-89
2022/02/17 02:01:53;;;;;;;;;;;10.10;99.90;;;;;;4966571;28;19922;-89
2022/02/17 02:04:19;;;;;;;;;;;10.10;99.90;;;;;;4974068;28;19919;-89
2022/02/17 02:06:49;;;;;;;;;;;10.10;99.90;;;;;;4943280;28;20352;-88
2022/02/17 02:09:17;;;;;;;;;;;10.10;99.90;;;;;;4968689;28;19918;-88
2022/02/17 02:12:03;;;;;;;;;;;10.20;99.90;;;;;;4974217;28;20261;-87
2022/02/17 02:14:29;;;;;;;;;;;10.10;99.90;;;;;;4942378;28;20004;-89
2022/02/17 02:16:57;;;;;;;;;;;10.10;99.90;;;;;;4968488;28;20001;-89
2022/02/17 02:19:23;;;;;;;;;;;10.20;99.90;;;;;;4940214;28;19962;-86
2022/02/17 02:21:53;;;;;;;;;;;10.20;99.90;;;;;;4956487;28;20012;-87
2022/02/17 02:24:18;;;;;;;;;;;10.20;99.90;;;;;;4978945;28;19996;-88
2022/02/17 02:26:44;;;;;;;;;;;10.20;99.90;;;;;;4977316;28;19949;-89
2022/02/17 02:29:16;;;;;;;;;;;10.20;99.90;;;;;;4978182;28;20353;-89
2022/02/17 02:31:41;;;;;;;;;;;10.20;99.90;;;;;;4977182;28;19925;-88
2022/02/17 02:34:07;;;;;;;;;;;10.20;99.90;;;;;;4961033;28;19914;-89
2022/02/17 02:36:34;;;;;;;;;;;10.20;99.90;;;;;;4955583;28;19968;-90
2022/02/17 02:38:59;;;;;;;;;;;10.10;99.90;;;;;;4954020;28;19918;-88
2022/02/17 02:41:35;;;;;;;;;;;10.20;99.90;;;;;;4941054;28;20422;-90
2022/02/17 02:44:00;;;;;;;;;;;10.20;99.90;;;;;;4961422;28;19914;-89
2022/02/17 02:46:27;;;;;;;;;;;10.20;99.90;;;;;;4973368;28;20273;-89
2022/02/17 02:48:56;;;;;;;;;;;10.20;99.90;;;;;;4989915;28;19914;-89
2022/02/17 02:51:22;;;;;;;;;;;10.20;99.90;;;;;;4957473;28;20400;-89
2022/02/17 02:53:48;;;;;;;;;;;10.20;99.90;;;;;;4940812;28;19941;-90
2022/02/17 02:56:14;;;;;;;;;;;10.20;99.90;;;;;;4960856;28;20304;-89
2022/02/17 02:58:41;;;;;;;;;;;10.20;99.90;;;;;;4976890;28;20008;-90
2022/02/17 03:01:07;;;;;;;;;;;10.20;99.90;;;;;;4976717;28;20037;-90
2022/02/17 03:03:33;;;;;;;;;;;10.20;99.90;;;;;;4976641;28;19918;-89
2022/02/17 03:06:00;;;;;;;;;;;10.20;99.90;;;;;;4976672;28;19918;-90
2022/02/17 03:08:27;;;;;;;;;;;10.20;99.90;;;;;;4976905;28;20008;-89
2022/02/17 03:10:53;;;;;;;;;;;10.30;99.90;;;;;;4958920;28;19952;-90
2022/02/17 03:13:48;;;;;;;;;;;10.20;99.90;;;;;;4973326;28;19914;-86
2022/02/17 03:16:14;;;;;;;;;;;10.20;99.90;;;;;;4968827;28;19918;-88
2022/02/17 03:18:40;;;;;;;;;;;10.10;99.90;;;;;;4941013;28;19926;-86
2022/02/17 03:21:12;;;;;;;;;;;10.10;99.90;;;;;;4973991;28;19926;-87
2022/02/17 03:23:38;;;;;;;;;;;10.10;99.90;;;;;;4947495;28;19919;-87
2022/02/17 03:26:10;;;;;;;;;;;10.20;99.90;;;;;;4987140;28;19954;-87
2022/02/17 03:28:36;;;;;;;;;;;10.10;99.90;;;;;;4956542;28;19925;-88
2022/02/17 03:31:03;;;;;;;;;;;10.10;99.90;;;;;;4969692;28;19914;-87
2022/02/17 03:33:30;;;;;;;;;;;10.10;99.90;;;;;;4954106;28;19914;-87
2022/02/17 03:35:58;;;;;;;;;;;10.10;99.90;;;;;;4954370;28;20372;-87
2022/02/17 03:38:24;;;;;;;;;;;10.10;99.90;;;;;;4936073;28;19928;-86
2022/02/17 03:40:54;;;;;;;;;;;10.10;99.90;;;;;;4941747;28;20412;-87
2022/02/17 03:43:23;;;;;;;;;;;10.10;99.90;;;;;;4973028;28;19914;-86
2022/02/17 03:45:48;;;;;;;;;;;10.10;99.90;;;;;;4974387;28;20399;-87
2022/02/17 03:48:14;;;;;;;;;;;10.10;99.90;;;;;;4939669;28;19978;-86
2022/02/17 03:50:46;;;;;;;;;;;10.10;99.90;;;;;;4938910;28;19957;-86
2022/02/17 03:53:14;;;;;;;;;;;10.10;99.90;;;;;;4955206;28;19921;-85
2022/02/17 03:55:46;;;;;;;;;;;10.10;99.90;;;;;;4971571;28;19922;-86
2022/02/17 03:59:00;;;;;;;;;;;10.10;99.90;;;;;;4950397;28;19918;-87
2022/02/17 04:01:04;;;;;;;;;;;10.00;99.90;;;;;;4969625;28;19915;-86
2022/02/17 04:03:34;;;;;;;;;;;10.00;99.90;;;;;;4952173;28;20282;-87
2022/02/17 04:06:01;;;;;;;;;;;10.10;99.90;;;;;;4937260;28;20005;-87
2022/02/17 04:08:26;;;;;;;;;;;10.10;99.90;;;;;;4955978;28;19961;-86
2022/02/17 04:10:52;;;;;;;;;;;10.00;99.90;;;;;;4972454;28;20013;-87
2022/02/17 04:13:21;;;;;;;;;;;10.00;99.90;;;;;;4972497;28;19914;-88
2022/02/17 04:15:50;;;;;;;;;;;10.00;99.90;;;;;;4972237;28;20013;-87
2022/02/17 04:18:33;;;;;;;;;;;10.10;99.90;;;;;;4958176;28;19984;-86
2022/02/17 04:21:12;;;;;;;;;;;10.10;99.90;;;;;;4973953;28;19914;-88
2022/02/17 04:23:50;;;;;;;;;;;10.10;99.90;;;;;;4942241;28;20269;-86
2022/02/17 04:26:19;;;;;;;;;;;10.10;99.90;;;;;;4937087;28;19926;-86
2022/02/17 04:28:58;;;;;;;;;;;10.00;99.90;;;;;;4966947;28;19921;-86
2022/02/17 04:31:27;;;;;;;;;;;10.00;99.90;;;;;;4955273;28;19914;-87
2022/02/17 04:33:53;;;;;;;;;;;10.00;99.90;;;;;;4955613;28;20296;-86
2022/02/17 04:36:21;;;;;;;;;;;10.00;99.90;;;;;;4940394;29;19919;-87
2022/02/17 04:38:47;;;;;;;;;;;10.00;99.90;;;;;;4968985;28;20013;-88
2022/02/17 04:44:03;;;;;;;;;;;9.90;99.90;;;;;;4967347;28;19965;-87
2022/02/17 04:46:30;;;;;;;;;;;9.90;99.90;;;;;;4939629;28;19934;-86
2022/02/17 04:48:58;;;;;;;;;;;9.80;99.90;;;;;;4956361;28;19921;-89
2022/02/17 04:51:24;;;;;;;;;;;9.80;99.90;;;;;;4940416;28;20292;-87
2022/02/17 04:53:50;;;;;;;;;;;9.70;99.90;;;;;;4955809;28;20050;-87
2022/02/17 04:56:16;;;;;;;;;;;9.70;99.90;;;;;;4953506;28;19997;-90
2022/02/17 04:58:41;;;;;;;;;;;9.60;99.90;;;;;;4988055;28;20004;-87
2022/02/17 05:01:10;;;;;;;;;;;9.50;99.90;;;;;;4959392;28;20009;-87
2022/02/17 05:03:47;;;;;;;;;;;9.40;99.90;;;;;;4971360;28;19915;-87
2022/02/17 05:06:18;;;;;;;;;;;9.30;99.90;;;;;;4942954;28;20005;-87
2022/02/17 05:08:51;;;;;;;;;;;9.10;99.90;;;;;;4959613;28;19922;-90
2022/02/17 05:11:17;;;;;;;;;;;9.00;99.90;;;;;;4975473;28;19950;-87
2022/02/17 05:13:43;;;;;;;;;;;8.90;99.90;;;;;;4959302;28;20332;-88
2022/02/17 05:16:14;;;;;;;;;;;8.80;99.90;;;;;;4974216;28;21195;-88
2022/02/17 05:18:39;;;;;;;;;;;8.70;99.90;;;;;;4940222;29;19933;-88
2022/02/17 05:21:09;;;;;;;;;;;8.60;99.90;;;;;;4952918;28;19918;-88
2022/02/17 05:23:54;;;;;;;;;;;8.60;99.90;;;;;;4987901;28;19929;-87
2022/02/17 05:26:29;;;;;;;;;;;8.50;99.90;;;;;;4945257;28;20303;-87
2022/02/17 05:29:00;;;;;;;;;;;8.40;99.90;;;;;;4975994;28;20331;-88
2022/02/17 05:31:57;;;;;;;;;;;8.30;99.90;;;;;;4963371;28;19918;-89
2022/02/17 05:34:42;;;;;;;;;;;8.20;99.90;;;;;;4961648;28;19914;-88
2022/02/17 05:37:34;;;;;;;;;;;8.20;99.90;;;;;;4954732;28;19923;-87
2022/02/17 05:40:18;;;;;;;;;;;8.20;99.90;;;;;;4972621;28;19926;-88
2022/02/17 05:42:45;;;;;;;;;;;8.10;99.90;;;;;;4958914;28;19918;-87
2022/02/17 05:45:12;;;;;;;;;;;8.00;99.90;;;;;;4976377;28;19921;-88
2022/02/17 05:47:41;;;;;;;;;;;7.90;99.90;;;;;;4974611;28;19922;-88
2022/02/17 05:50:07;;;;;;;;;;;7.90;99.90;;;;;;4958920;28;20439;-88
2022/02/17 05:52:33;;;;;;;;;;;7.80;99.90;;;;;;4961506;28;19921;-88
2022/02/17 05:54:58;;;;;;;;;;;7.70;99.90;;;;;;4974424;28;19918;-87
2022/02/17 05:57:24;;;;;;;;;;;7.70;99.90;;;;;;4938457;29;19930;-88
2022/02/17 05:59:49;;;;;;;;;;;7.70;99.90;;;;;;4974617;28;19969;-88
2022/02/17 06:02:17;;;;;;;;;;;7.60;99.90;;;;;;4974711;28;20008;-88
2022/02/17 06:04:43;;;;;;;;;;;7.60;99.90;;;;;;4942391;28;19980;-87
2022/02/17 06:07:10;;;;;;;;;;;7.60;99.90;;;;;;4958590;28;19914;-88
2022/02/17 06:09:36;;;;;;;;;;;7.50;99.90;;;;;;4939256;29;19918;-86
2022/02/17 06:12:03;;;;;;;;;;;7.40;99.90;;;;;;4983877;28;19937;-88
2022/02/17 06:14:29;;;;;;;;;;;7.30;99.90;;;;;;4974230;28;20357;-89
2022/02/17 06:16:55;;;;;;;;;;;7.30;99.90;;;;;;4942545;28;19929;-88
2022/02/17 06:19:20;;;;;;;;;;;7.20;99.90;;;;;;4942604;28;19923;-87
2022/02/17 06:21:46;;;;;;;;;;;7.20;99.90;;;;;;4974218;28;19915;-84
2022/02/17 06:24:12;;;;;;;;;;;7.10;99.90;;;;;;4959102;28;19918;-88
2022/02/17 06:26:40;;;;;;;;;;;7.00;99.90;;;;;;4945696;28;19914;-88
2022/02/17 06:29:06;;;;;;;;;;;7.00;99.90;;;;;;4974639;28;19945;-88
2022/02/17 06:31:32;;;;;;;;;;;6.90;99.90;;;;;;4958570;28;19997;-88
2022/02/17 06:33:58;;;;;;;;;;;6.90;99.90;;;;;;4974149;28;20403;-88
2022/02/17 06:36:23;;;;;;;;;;;6.80;99.90;;;;;;4974431;28;20357;-87
2022/02/17 06:38:49;;;;;;;;;;;6.80;99.90;;;;;;4954568;28;20009;-89
2022/02/17 06:41:17;;;;;;;;;;;6.70;99.90;;;;;;4970951;28;19959;-87
2022/02/17 06:43:43;;;;;;;;;;;6.70;99.90;;;;;;4973873;28;19910;-88
2022/02/17 06:46:09;;;;;;;;;;;6.70;99.90;;;;;;4957029;28;19928;-88
2022/02/17 06:48:34;;;;;;;;;;;6.70;99.90;;;;;;4942032;28;19941;-89
2022/02/17 06:51:00;;;;;;;;;;;6.70;99.90;;;;;;4942128;28;19918;-89
2022/02/17 06:53:26;;;;;;;;;;;6.80;99.90;;;;;;4941939;28;20006;-87
2022/02/17 06:55:51;;;;;;;;;;;6.70;99.90;;;;;;4974818;28;20294;-89
2022/02/17 06:58:17;;;;;;;;;;;6.70;99.90;;;;;;4973717;28;20328;-89
2022/02/17 07:00:43;;;;;;;;;;;6.80;99.90;;;;;;4970591;28;19919;-88
2022/02/17 07:03:08;;;;;;;;;;;6.90;99.90;;;;;;4972526;28;19910;-88
2022/02/17 07:05:35;;;;;;;;;;;7.00;99.90;;;;;;4957754;28;19945;-89
2022/02/17 07:08:00;;;;;;;;;;;7.00;99.90;;;;;;4957333;28;20013;-88
2022/02/17 07:13:11;;;;;;;;;;;7.00;99.90;;;;;;4975595;28;19961;-87
2022/02/17 07:15:37;;;;;;;;;;;7.10;99.90;;;;;;4977173;28;19919;-85
2022/02/17 07:18:03;;;;;;;;;;;7.10;99.90;;;;;;4969369;28;19914;-89
2022/02/17 07:20:30;;;;;;;;;;;7.10;99.90;;;;;;4973430;28;19977;-87
2022/02/17 07:22:57;;;;;;;;;;;7.20;99.90;;;;;;4960751;28;20376;-88
2022/02/17 07:25:25;;;;;;;;;;;7.20;99.90;;;;;;4970541;28;19918;-86
2022/02/17 07:27:51;;;;;;;;;;;7.20;99.90;;;;;;4955080;28;20460;-88
2022/02/17 07:30:16;;;;;;;;;;;7.20;99.90;;;;;;4982495;28;19958;-85
2022/02/17 07:32:44;;;;;;;;;;;7.20;99.90;;;;;;4959100;28;20399;-90
2022/02/17 07:35:10;;;;;;;;;;;7.20;99.90;;;;;;4955081;28;19914;-86
2022/02/17 07:37:36;;;;;;;;;;;7.20;99.90;;;;;;4956637;28;19918;-83
2022/02/17 07:40:02;;;;;;;;;;;7.20;99.90;;;;;;4958609;28;19922;-85
2022/02/17 07:42:27;;;;;;;;;;;7.20;99.90;;;;;;4957165;28;19921;-86
2022/02/17 07:44:56;;;;;;;;;;;7.20;99.90;;;;;;4967257;28;19941;-87
2022/02/17 07:47:22;;;;;;;;;;;7.10;99.90;;;;;;4940299;28;19929;-86
2022/02/17 07:49:49;;;;;;;;;;;7.10;99.90;;;;;;4973265;28;19957;-85
2022/02/17 07:52:15;;;;;;;;;;;7.20;99.90;;;;;;4990140;28;19913;-86
2022/02/17 07:54:41;;;;;;;;;;;7.20;99.90;;;;;;4988398;28;19921;-88
2022/02/17 07:57:07;;;;;;;;;;;7.30;99.90;;;;;;4942797;28;19922;-87
2022/02/17 07:59:32;;;;;;;;;;;7.40;99.90;;;;;;4946070;28;20003;-88
2022/02/17 08:01:58;;;;;;;;;;;7.40;99.90;;;;;;4964575;28;19937;-87
2022/02/17 08:04:24;;;;;;;;;;;7.40;99.90;;;;;;4959940;28;19915;-87
2022/02/17 08:06:50;;;;;;;;;;;7.50;99.90;;;;;;4991569;28;19958;-87
2022/02/17 08:09:15;;;;;;;;;;;7.50;99.90;;;;;;4949634;28;19918;-88
2022/02/17 08:11:41;;;;;;;;;;;7.50;99.90;;;;;;4967582;28;19918;-88
2022/02/17 08:14:07;;;;;;;;;;;7.50;99.90;;;;;;4959338;28;19929;-88
2022/02/17 08:16:33;;;;;;;;;;;7.50;99.90;;;;;;4958212;28;19914;-91
2022/02/17 08:18:59;;;;;;;;;;;7.40;99.90;;;;;;4973778;28;19965;-88
2022/02/17 08:21:25;;;;;;;;;;;7.30;99.90;;;;;;4965458;28;20018;-88
2022/02/17 08:23:50;;;;;;;;;;;7.30;99.90;;;;;;4973161;28;19954;-89
2022/02/17 08:26:17;;;;;;;;;;;7.20;99.90;;;;;;4973675;28;20036;-89
2022/02/17 08:28:43;;;;;;;;;;;7.00;99.90;;;;;;4973112;28;20008;-90
2022/02/17 08:31:09;;;;;;;;;;;7.00;99.90;;;;;;4976238;28;19958;-87
2022/02/17 08:33:35;;;;;;;;;;;6.90;99.90;;;;;;4973787;28;20438;-87
2022/02/17 08:36:04;;;;;;;;;;;6.90;99.90;;;;;;4944714;28;19918;-88
2022/02/17 08:38:31;;;;;;;;;;;6.90;99.90;;;;;;4957807;28;19925;-88
2022/02/17 08:40:59;;;;;;;;;;;6.80;99.90;;;;;;4976140;28;19954;-88
2022/02/17 08:43:25;;;;;;;;;;;6.80;99.90;;;;;;4969418;28;19976;-88
2022/02/17 08:45:50;;;;;;;;;;;6.90;99.90;;;;;;4973762;28;19922;-88
2022/02/17 08:48:18;;;;;;;;;;;7.00;99.90;;;;;;4970547;28;20323;-88
2022/02/17 08:50:44;;;;;;;;;;;7.10;99.90;;;;;;4938234;28;19926;-89
2022/02/17 08:53:10;;;;;;;;;;;7.20;99.90;;;;;;4956269;28;19954;-89
2022/02/17 08:55:36;;;;;;;;;;;7.30;99.90;;;;;;4942401;28;20447;-88
2022/02/17 08:58:01;;;;;;;;;;;7.50;99.90;;;;;;4959401;28;19933;-87
2022/02/17 09:00:27;;;;;;;;;;;7.60;99.90;;;;;;4957155;28;20396;-87
2022/02/17 09:02:53;;;;;;;;;;;7.70;99.90;;;;;;4965756;28;19957;-88
2022/02/17 09:05:19;;;;;;;;;;;7.90;99.90;;;;;;4957572;28;20364;-88
2022/02/17 09:07:44;;;;;;;;;;;8.00;99.90;;;;;;4934974;28;19925;-87
2022/02/17 09:10:11;;;;;;;;;;;8.00;99.90;;;;;;4973628;28;20017;-90
2022/02/17 09:12:37;;;;;;;;;;;8.10;99.90;;;;;;4957606;28;20045;-88
2022/02/17 09:15:03;;;;;;;;;;;8.10;99.90;;;;;;4969481;28;20056;-85
2022/02/17 09:17:29;;;;;;;;;;;8.30;99.90;;;;;;4947990;28;19918;-87
2022/02/17 09:19:55;;;;;;;;;;;8.40;99.90;;;;;;4979370;28;19917;-89
2022/02/17 09:22:20;;;;;;;;;;;8.50;99.90;;;;;;4970574;28;19922;-86
2022/02/17 09:24:47;;;;;;;;;;;8.60;99.90;;;;;;4940831;28;20123;-90
2022/02/17 09:27:13;;;;;;;;;;;8.70;99.90;;;;;;4973720;28;20049;-89
2022/02/17 09:29:40;;;;;;;;;;;8.80;99.90;;;;;;4958625;28;19914;-88
2022/02/17 09:32:06;;;;;;;;;;;8.80;99.90;;;;;;4975387;28;19976;-87
2022/02/17 09:34:34;;;;;;;;;;;8.80;99.90;;;;;;4971855;28;19969;-88
2022/02/17 09:37:00;;;;;;;;;;;8.80;99.90;;;;;;4953747;28;19937;-85
2022/02/17 09:39:27;;;;;;;;;;;8.90;99.90;;;;;;4951670;28;20381;-87
2022/02/17 09:41:53;;;;;;;;;;;9.00;99.90;;;;;;4976428;28;19925;-87
2022/02/17 09:44:20;;;;;;;;;;;9.10;99.90;;;;;;4958428;28;19910;-85
2022/02/17 09:46:47;;;;;;;;;;;9.30;99.90;;;;;;4937937;28;19965;-83
2022/02/17 09:49:17;;;;;;;;;;;9.40;99.90;;;;;;4972104;28;19933;-85
2022/02/17 09:51:43;;;;;;;;;;;9.50;99.90;;;;;;4984518;28;19957;-86
2022/02/17 09:54:09;;;;;;;;;;;9.50;99.90;;;;;;4974181;28;20272;-88
2022/02/17 09:56:35;;;;;;;;;;;9.40;99.90;;;;;;4968047;28;19964;-89
2022/02/17 09:59:01;;;;;;;;;;;9.40;99.90;;;;;;4972475;28;19933;-87
2022/02/17 10:01:29;;;;;;;;;;;9.40;99.90;;;;;;4956975;28;19918;-88
2022/02/17 10:04:09;;;;;;;;;;;9.20;99.90;;;;;;4953003;28;20016;-88
2022/02/17 10:06:55;;;;;;;;;;;9.10;99.90;;;;;;4953200;28;19923;-88
2022/02/17 10:09:22;;;;;;;;;;;8.80;99.90;;;;;;4957900;28;19914;-88
2022/02/17 10:11:48;;;;;;;;;;;8.40;99.90;;;;;;4976212;28;20339;-88
2022/02/17 10:14:15;;;;;;;;;;;7.90;99.90;;;;;;4974421;28;19972;-90
2022/02/17 10:17:03;;;;;;;;;;;7.40;99.90;;;;;;4976869;28;20001;-89
2022/02/17 10:19:33;;;;;;;;;;;7.00;99.90;;;;;;4957296;28;19918;-88
2022/02/17 10:22:09;;;;;;;;;;;6.50;99.90;;;;;;4980092;28;20396;-89
2022/02/17 10:24:36;;;;;;;;;;;6.20;99.90;;;;;;4957454;28;20053;-89
2022/02/17 10:27:08;;;;;;;;;;;6.00;99.90;;;;;;4950774;28;19923;-87
2022/02/17 10:29:35;;;;;;;;;;;5.90;99.90;;;;;;4972609;28;19997;-90
2022/02/17 10:32:04;;;;;;;;;;;5.80;99.90;;;;;;4958302;28;20714;-90
2022/02/17 10:34:30;;;;;;;;;;;5.70;99.90;;;;;;4961646;28;19922;-89
2022/02/17 10:36:56;;;;;;;;;;;5.70;99.90;;;;;;4957946;28;20266;-90
2022/02/17 10:39:28;;;;;;;;;;;5.60;99.90;;;;;;4943329;28;19922;-90
2022/02/17 10:41:59;;;;;;;;;;;5.70;99.90;;;;;;4972361;28;19941;-89
2022/02/17 10:44:29;;;;;;;;;;;5.70;99.90;;;;;;4956107;28;19997;-89
2022/02/17 10:46:55;;;;;;;;;;;5.70;99.90;;;;;;4956428;28;19925;-85
2022/02/17 10:49:22;;;;;;;;;;;5.70;99.90;;;;;;4961401;28;19914;-89
2022/02/17 10:51:48;;;;;;;;;;;5.80;99.90;;;;;;4973442;28;19918;-87
2022/02/17 10:54:21;;;;;;;;;;;6.00;99.90;;;;;;4961361;28;19925;-89
2022/02/17 10:56:51;;;;;;;;;;;6.00;99.90;;;;;;4966243;28;19925;-89
2022/02/17 11:02:03;;;;;;;;;;;5.90;99.90;;;;;;4981844;28;19915;-89
2022/02/17 11:04:29;;;;;;;;;;;5.90;99.90;;;;;;4937262;28;19918;-89
2022/02/17 11:06:58;;;;;;;;;;;5.90;99.90;;;;;;4940592;28;19969;-86
2022/02/17 11:09:24;;;;;;;;;;;5.90;99.90;;;;;;4969078;28;19922;-88
2022/02/17 11:11:51;;;;;;;;;;;5.90;99.90;;;;;;4953758;28;19922;-89
2022/02/17 11:14:34;;;;;;;;;;;5.90;99.90;;;;;;4984480;28;19918;-88
2022/02/17 11:17:00;;;;;;;;;;;6.10;99.90;;;;;;4988937;28;19921;-84
2022/02/17 11:19:26;;;;;;;;;;;6.40;99.90;;;;;;4977217;28;19933;-87
2022/02/17 11:21:52;;;;;;;;;;;6.50;99.90;;;;;;4957199;28;19945;-88
2022/02/17 11:24:17;;;;;;;;;;;6.70;99.90;;;;;;4959926;28;20568;-90
2022/02/17 11:26:43;;;;;;;;;;;6.90;99.90;;;;;;4964902;28;19914;-89
2022/02/17 11:29:25;;;;;;;;;;;7.10;99.90;;;;;;4960051;28;19914;-85
2022/02/17 11:31:58;;;;;;;;;;;7.20;99.90;;;;;;4970952;28;19920;-88
2022/02/17 11:34:37;;;;;;;;;;;7.30;99.90;;;;;;4951355;28;19918;-88
2022/02/17 11:37:22;;;;;;;;;;;7.30;99.90;;;;;;4972830;28;19918;-88
2022/02/17 11:40:04;;;;;;;;;;;7.20;99.90;;;;;;4970105;28;19922;-86
2022/02/17 11:42:30;;;;;;;;;;;7.10;99.90;;;;;;4965085;28;19950;-87
2022/02/17 11:45:10;;;;;;;;;;;7.10;99.90;;;;;;4966267;28;19915;-87
2022/02/17 11:47:55;;;;;;;;;;;7.00;99.90;;;;;;4968927;28;20018;-87
2022/02/17 11:50:40;;;;;;;;;;;7.00;99.90;;;;;;4959659;28;20574;-89
2022/02/17 11:53:24;;;;;;;;;;;6.90;99.90;;;;;;4961193;28;19918;-88
2022/02/17 11:55:51;;;;;;;;;;;6.90;99.90;;;;;;4985091;28;19956;-91
2022/02/17 11:58:35;;;;;;;;;;;6.90;99.90;;;;;;4954839;28;19958;-86
2022/02/17 12:01:36;;;;;;;;;;;6.90;99.90;;;;;;4964475;28;20454;-89
2022/02/17 12:04:17;;;;;;;;;;;7.00;99.90;;;;;;4956845;28;19917;-89
2022/02/17 12:06:52;;;;;;;;;;;7.00;99.90;;;;;;4966782;28;20427;-88
2022/02/17 12:09:37;;;;;;;;;;;7.00;99.90;;;;;;4963275;28;19965;-88
2022/02/17 12:12:09;;;;;;;;;;;7.00;99.90;;;;;;4994541;28;19914;-90
2022/02/17 12:14:54;;;;;;;;;;;7.00;99.90;;;;;;4947909;28;19921;-89
2022/02/17 12:17:29;;;;;;;;;;;6.90;99.90;;;;;;4952825;28;19968;-90
2022/02/17 12:20:03;;;;;;;;;;;6.70;99.90;;;;;;4934761;29;22048;-91
2022/02/17 12:22:28;;;;;;;;;;;6.50;99.90;;;;;;4980511;28;19914;-88
2022/02/17 12:25:10;;;;;;;;;;;6.30;99.90;;;;;;4954358;28;20368;-88
2022/02/17 12:27:36;;;;;;;;;;;6.20;99.90;;;;;;4970639;28;19920;-87
2022/02/17 12:30:01;;;;;;;;;;;6.00;99.90;;;;;;4937314;28;19950;-88
2022/02/17 12:32:29;;;;;;;;;;;5.90;99.90;;;;;;4969175;28;20292;-89
2022/02/17 12:34:55;;;;;;;;;;;5.80;99.90;;;;;;4967174;28;20014;-88
2022/02/17 12:37:20;;;;;;;;;;;5.80;99.90;;;;;;4967644;28;20004;-88
2022/02/17 12:39:51;;;;;;;;;;;5.80;99.90;;;;;;4950372;28;19914;-88
2022/02/17 12:42:17;;;;;;;;;;;5.80;99.90;;;;;;4935933;28;19966;-88
2022/02/17 12:44:44;;;;;;;;;;;5.80;99.90;;;;;;4971428;28;19910;-85
2022/02/17 12:47:10;;;;;;;;;;;5.90;99.90;;;;;;4966214;28;19922;-89
2022/02/17 12:49:36;;;;;;;;;;;6.00;99.90;;;;;;4970801;28;19925;-89
2022/02/17 12:52:09;;;;;;;;;;;6.00;99.90;;;;;;4955721;28;19920;-88
2022/02/17 12:54:35;;;;;;;;;;;6.20;99.90;;;;;;4971709;28;19914;-87
2022/02/17 12:57:11;;;;;;;;;;;6.30;99.90;;;;;;4971368;28;19957;-88
2022/02/17 12:59:37;;;;;;;;;;;6.30;99.90;;;;;;4970055;28;19953;-86
2022/02/17 13:02:03;;;;;;;;;;;6.30;99.90;;;;;;4973265;28;19969;-90
2022/02/17 13:04:32;;;;;;;;;;;6.30;99.90;;;;;;4953419;28;20339;-89
2022/02/17 13:07:00;;;;;;;;;;;6.30;99.90;;;;;;4950888;28;19922;-88
2022/02/17 13:09:29;;;;;;;;;;;6.30;99.90;;;;;;4970453;28;19968;-85
2022/02/17 13:11:58;;;;;;;;;;;6.30;99.90;;;;;;4986217;28;19926;-87
2022/02/17 13:14:32;;;;;;;;;;;6.20;99.90;;;;;;4955181;28;20020;-87
2022/02/17 13:16:58;;;;;;;;;;;6.20;99.90;;;;;;4939718;28;19922;-87
2022/02/17 13:19:42;;;;;;;;;;;6.10;99.90;;;;;;4969364;28;19925;-85
2022/02/17 13:22:11;;;;;;;;;;;6.20;99.90;;;;;;5000579;28;20443;-87
2022/02/17 13:24:37;;;;;;;;;;;6.40;99.90;;;;;;4977783;28;19925;-86
2022/02/17 13:27:13;;;;;;;;;;;6.60;99.90;;;;;;4961464;28;19961;-88
2022/02/17 13:29:55;;;;;;;;;;;6.70;99.90;;;;;;4975053;28;19921;-90
2022/02/17 13:32:22;;;;;;;;;;;6.80;99.90;;;;;;4943235;28;20435;-88
2022/02/17 13:34:47;;;;;;;;;;;6.80;99.90;;;;;;4971515;28;19922;-89
2022/02/17 13:37:13;;;;;;;;;;;6.70;99.90;;;;;;4939693;28;19922;-87
2022/02/17 13:39:38;;;;;;;;;;;6.70;99.90;;;;;;4942361;28;19953;-90
2022/02/17 13:42:08;;;;;;;;;;;6.70;99.90;;;;;;4960289;28;19921;-88
2022/02/17 13:44:39;;;;;;;;;;;6.60;99.90;;;;;;4956022;28;19915;-89
2022/02/17 13:47:11;;;;;;;;;;;6.60;99.90;;;;;;4974114;28;19918;-88
2022/02/17 13:49:37;;;;;;;;;;;6.70;99.90;;;;;;4973686;28;19925;-89
2022/02/17 13:52:03;;;;;;;;;;;6.70;99.90;;;;;;4974450;28;19918;-85
2022/02/17 13:54:49;;;;;;;;;;;6.80;99.90;;;;;;4959100;28;20415;-88
2022/02/17 13:57:15;;;;;;;;;;;6.90;99.90;;;;;;4979134;28;19923;-89
2022/02/17 13:59:40;;;;;;;;;;;7.00;99.90;;;;;;4968723;28;20316;-87
2022/02/17 14:02:08;;;;;;;;;;;6.90;99.90;;;;;;4984948;28;20412;-88
2022/02/17 14:04:36;;;;;;;;;;;7.00;99.90;;;;;;4961886;28;19918;-90
2022/02/17 14:07:02;;;;;;;;;;;7.00;99.90;;;;;;4934366;28;19926;-90
2022/02/17 14:09:30;;;;;;;;;;;7.10;99.90;;;;;;4941363;28;19918;-88
2022/02/17 14:11:55;;;;;;;;;;;7.20;99.90;;;;;;4941955;28;19969;-90
2022/02/17 14:14:23;;;;;;;;;;;7.20;99.90;;;;;;4970896;28;19919;-89
2022/02/17 14:16:49;;;;;;;;;;;7.30;99.90;;;;;;4964528;28;20377;-87
2022/02/17 14:19:15;;;;;;;;;;;7.20;99.90;;;;;;4992217;28;19929;-88
2022/02/17 14:21:40;;;;;;;;;;;7.20;99.90;;;;;;4965787;28;19960;-87
2022/02/17 14:24:06;;;;;;;;;;;7.00;99.90;;;;;;4973081;28;19994;-89
2022/02/17 14:26:32;;;;;;;;;;;7.00;99.90;;;;;;4951604;28;19915;-86
2022/02/17 14:28:58;;;;;;;;;;;6.80;99.90;;;;;;4950645;28;19921;-88
2022/02/17 14:31:24;;;;;;;;;;;6.80;99.90;;;;;;4956033;28;19921;-88
2022/02/17 14:33:50;;;;;;;;;;;6.70;99.90;;;;;;4959815;28;19915;-88
2022/02/17 14:36:16;;;;;;;;;;;6.60;99.90;;;;;;4956828;28;19921;-87
2022/02/17 14:38:42;;;;;;;;;;;6.50;99.90;;;;;;4960503;28;19925;-89
2022/02/17 14:41:08;;;;;;;;;;;6.40;99.90;;;;;;4941102;28;19929;-88
2022/02/17 14:43:34;;;;;;;;;;;6.40;99.90;;;;;;4952547;28;20280;-89